createdAt,value
2018-06-13T00:01:12.820Z,96.39
2018-06-13T00:03:40.788Z,96.75
2018-06-13T00:06:08.805Z,97.78
2018-06-13T00:08:36.843Z,97.09
2018-06-13T00:11:04.878Z,97.04
2018-06-13T00:13:33.134Z,97.77
2018-06-13T00:16:01.199Z,97.65
2018-06-13T00:18:29.413Z,97.20
2018-06-13T00:20:57.494Z,98.46
2018-06-13T00:23:25.554Z,98.38
2018-06-13T00:25:53.556Z,98.14
2018-06-13T00:28:21.531Z,98.80
2018-06-13T00:30:49.552Z,99.40
2018-06-13T00:33:17.624Z,98.57
2018-06-13T00:35:45.653Z,98.63
2018-06-13T00:38:13.680Z,98.32
2018-06-13T00:40:41.766Z,97.68
2018-06-13T00:43:09.799Z,98.72
2018-06-13T00:45:37.956Z,99.31
2018-06-13T00:48:06.019Z,99.27
2018-06-13T00:50:34.084Z,99.25
2018-06-13T00:53:02.140Z,99.54
2018-06-13T00:55:30.161Z,99.32
2018-06-13T00:57:58.305Z,99.97
2018-06-13T01:00:26.382Z,100.00
2018-06-13T01:02:54.473Z,99.60
2018-06-13T01:05:22.555Z,100.00
2018-06-13T01:07:50.620Z,100.00
2018-06-13T01:10:18.568Z,100.00
2018-06-13T01:12:46.602Z,100.00
2018-06-13T01:15:14.792Z,100.00
2018-06-13T01:17:42.910Z,100.00
2018-06-13T01:20:10.906Z,100.00
2018-06-13T01:22:38.927Z,100.00
2018-06-13T01:25:07.055Z,100.00
2018-06-13T01:27:34.986Z,100.00
2018-06-13T01:30:03.027Z,100.00
2018-06-13T01:32:31.060Z,100.00
2018-06-13T01:34:59.111Z,100.00
2018-06-13T01:37:27.145Z,100.00
2018-06-13T01:39:55.161Z,100.00
2018-06-13T01:42:23.290Z,100.00
2018-06-13T01:44:51.292Z,100.00
2018-06-13T01:47:19.300Z,100.00
2018-06-13T01:49:47.332Z,100.00
2018-06-13T01:52:15.380Z,100.00
2018-06-13T01:54:43.406Z,100.00
2018-06-13T01:57:11.424Z,100.00
2018-06-13T01:59:39.522Z,100.00
2018-06-13T02:02:07.623Z,100.00
2018-06-13T02:04:35.676Z,100.00
2018-06-13T02:07:03.780Z,100.00
2018-06-13T02:09:31.766Z,100.00
2018-06-13T02:11:59.751Z,100.00
2018-06-13T02:14:27.759Z,100.00
2018-06-13T02:16:55.808Z,100.00
2018-06-13T02:19:23.854Z,100.00
2018-06-13T02:21:51.917Z,100.00
2018-06-13T02:24:19.941Z,100.00
2018-06-13T02:26:47.967Z,100.00
2018-06-13T02:29:16.021Z,100.00
2018-06-13T02:31:44.087Z,100.00
2018-06-13T02:34:12.116Z,100.00
2018-06-13T02:36:40.220Z,100.00
2018-06-13T02:39:08.443Z,100.00
2018-06-13T02:41:36.750Z,100.00
2018-06-13T02:44:04.877Z,100.00
2018-06-13T02:46:33.429Z,100.00
2018-06-13T02:49:01.595Z,100.00
2018-06-13T02:51:29.628Z,100.00
2018-06-13T02:53:57.688Z,100.00
2018-06-13T02:56:25.816Z,100.00
2018-06-13T02:58:53.799Z,100.00
2018-06-13T03:01:21.877Z,100.00
2018-06-13T03:03:49.920Z,100.00
2018-06-13T03:06:17.908Z,100.00
2018-06-13T03:08:45.995Z,100.00
2018-06-13T03:11:14.073Z,100.00
2018-06-13T03:13:42.224Z,99.86
2018-06-13T03:16:10.251Z,98.08
2018-06-13T03:18:38.399Z,96.11
2018-06-13T03:21:06.429Z,93.69
2018-06-13T03:23:34.533Z,92.03
2018-06-13T03:26:02.584Z,88.57
2018-06-13T03:28:30.641Z,86.87
2018-06-13T03:30:58.885Z,85.76
2018-06-13T03:33:26.893Z,83.97
2018-06-13T03:35:55.010Z,81.92
2018-06-13T03:38:23.149Z,79.93
2018-06-13T03:40:51.236Z,78.52
2018-06-13T03:43:19.241Z,74.94
2018-06-13T03:45:47.353Z,75.76
2018-06-13T03:48:15.456Z,74.43
2018-06-13T03:50:43.486Z,74.58
2018-06-13T03:53:11.572Z,71.48
2018-06-13T03:55:39.692Z,73.41
2018-06-13T03:58:07.945Z,73.88
2018-06-13T04:00:35.902Z,73.56
2018-06-13T04:03:03.896Z,70.73
2018-06-13T04:05:31.995Z,70.32
2018-06-13T04:08:00.149Z,69.68
2018-06-13T04:10:28.209Z,73.25
2018-06-13T04:12:56.420Z,72.24
2018-06-13T04:15:24.723Z,74.17
2018-06-13T04:17:52.733Z,74.94
2018-06-13T04:20:20.818Z,78.62
2018-06-13T04:22:48.943Z,76.19
2018-06-13T04:25:16.999Z,75.16
2018-06-13T04:27:45.161Z,71.19
2018-06-13T04:30:13.259Z,69.62
2018-06-13T04:32:41.413Z,68.77
2018-06-13T04:35:09.770Z,70.46
2018-06-13T04:37:37.991Z,68.52
2018-06-13T04:40:05.996Z,68.73
2018-06-13T04:42:34.130Z,67.82
2018-06-13T04:45:02.241Z,68.31
2018-06-13T04:47:30.473Z,67.19
2018-06-13T04:49:58.693Z,67.15
2018-06-13T04:52:27.185Z,67.00
2018-06-13T04:54:55.460Z,66.82
2018-06-13T04:57:23.789Z,66.88
2018-06-13T04:59:52.368Z,68.23
2018-06-13T05:02:20.693Z,69.26
2018-06-13T05:04:49.451Z,68.50
2018-06-13T05:07:17.750Z,68.63
2018-06-13T05:09:46.043Z,67.54
2018-06-13T05:12:14.626Z,69.19
2018-06-13T05:14:42.945Z,66.51
2018-06-13T05:17:11.175Z,68.34
2018-06-13T05:19:39.411Z,68.50
2018-06-13T05:22:07.664Z,69.39
2018-06-13T05:24:35.935Z,70.98
2018-06-13T05:27:04.135Z,68.96
2018-06-13T05:29:32.377Z,69.70
2018-06-13T05:32:00.701Z,67.09
2018-06-13T05:34:29.007Z,68.04
2018-06-13T05:36:57.308Z,67.68
2018-06-13T05:39:25.471Z,64.51
2018-06-13T05:41:53.613Z,64.17
2018-06-13T05:44:21.830Z,63.71
2018-06-13T05:46:50.097Z,65.25
2018-06-13T05:49:18.195Z,66.95
2018-06-13T05:51:46.402Z,65.32
2018-06-13T05:54:14.578Z,65.93
2018-06-13T05:56:42.719Z,67.29
2018-06-13T05:59:10.857Z,66.69
2018-06-13T06:01:39.509Z,66.21
2018-06-13T06:04:07.715Z,66.81
2018-06-13T06:06:36.053Z,69.04
2018-06-13T06:09:07.380Z,67.21
2018-06-13T06:11:35.612Z,66.10
2018-06-13T06:14:04.270Z,64.91
2018-06-13T06:16:32.614Z,65.46
2018-06-13T06:19:01.181Z,67.74
2018-06-13T06:21:29.474Z,65.57
2018-06-13T06:23:57.570Z,66.63
2018-06-13T06:26:25.808Z,64.45
2018-06-13T06:28:54.558Z,64.46
2018-06-13T06:31:23.186Z,65.64
2018-06-13T06:33:52.035Z,65.14
2018-06-13T06:36:20.569Z,63.67
2018-06-13T06:38:48.831Z,62.14
2018-06-13T06:41:17.054Z,63.95
2018-06-13T06:43:45.429Z,62.88
2018-06-13T06:46:13.656Z,60.36
2018-06-13T06:48:41.849Z,62.93
2018-06-13T06:51:09.950Z,62.41
2018-06-13T06:53:38.157Z,63.67
2018-06-13T06:56:06.234Z,65.14
2018-06-13T06:58:34.996Z,64.16
2018-06-13T07:01:03.572Z,62.50
2018-06-13T07:03:31.760Z,60.35
2018-06-13T07:05:59.871Z,59.98
2018-06-13T07:08:28.041Z,60.47
2018-06-13T07:10:56.170Z,60.09
2018-06-13T07:13:24.311Z,62.76
2018-06-13T07:15:52.380Z,58.47
2018-06-13T07:18:20.487Z,56.09
2018-06-13T07:20:48.832Z,57.39
2018-06-13T07:23:17.026Z,59.88
2018-06-13T07:25:45.282Z,60.82
2018-06-13T07:28:13.624Z,59.75
2018-06-13T07:30:41.841Z,56.93
2018-06-13T07:33:09.880Z,58.19
2018-06-13T07:35:38.706Z,57.11
2018-06-13T07:38:07.057Z,58.84
2018-06-13T07:40:35.284Z,58.25
2018-06-13T07:43:03.626Z,55.57
2018-06-13T07:45:31.961Z,54.82
2018-06-13T07:48:00.248Z,55.07
2018-06-13T07:50:29.169Z,56.87
2018-06-13T07:52:57.377Z,55.21
2018-06-13T07:55:25.579Z,56.01
2018-06-13T07:57:53.832Z,54.28
2018-06-13T08:00:21.969Z,56.14
2018-06-13T08:02:50.422Z,57.48
2018-06-13T08:05:18.514Z,54.54
2018-06-13T08:07:47.171Z,51.93
2018-06-13T08:10:16.232Z,52.37
2018-06-13T08:12:45.248Z,52.46
2018-06-13T08:15:13.852Z,51.38
2018-06-13T08:17:42.399Z,52.54
2018-06-13T08:20:10.516Z,50.12
2018-06-13T08:22:38.667Z,52.26
2018-06-13T08:25:06.924Z,49.26
2018-06-13T08:27:37.805Z,49.06
2018-06-13T08:30:05.937Z,48.13
2018-06-13T08:32:34.178Z,46.55
2018-06-13T08:35:02.396Z,50.49
2018-06-13T08:37:30.703Z,45.33
2018-06-13T08:39:59.002Z,50.99
2018-06-13T08:42:27.332Z,46.31
2018-06-13T08:44:55.919Z,43.18
2018-06-13T08:47:24.423Z,42.94
2018-06-13T08:49:52.585Z,41.16
2018-06-13T08:52:20.644Z,46.70
2018-06-13T08:54:48.850Z,42.59
2018-06-13T08:57:17.240Z,43.43
2018-06-13T08:59:45.489Z,43.10
2018-06-13T09:02:14.471Z,43.10
2018-06-13T09:04:43.138Z,48.84
2018-06-13T09:07:11.791Z,42.17
2018-06-13T09:09:40.036Z,41.32
2018-06-13T09:12:08.143Z,44.92
2018-06-13T09:14:36.802Z,44.21
2018-06-13T09:17:04.831Z,48.53
2018-06-13T09:19:33.943Z,47.30
2018-06-13T09:22:02.311Z,45.02
2018-06-13T09:24:30.869Z,45.53
2018-06-13T09:26:59.590Z,46.93
2018-06-13T09:29:27.868Z,45.81
2018-06-13T09:31:55.975Z,46.63
2018-06-13T09:34:24.012Z,47.80
2018-06-13T09:36:52.104Z,42.80
2018-06-13T09:39:20.347Z,42.53
2018-06-13T09:42:03.418Z,43.81
2018-06-13T09:44:31.488Z,41.38
2018-06-13T09:47:06.899Z,43.45
2018-06-13T09:49:27.754Z,42.47
2018-06-13T09:51:56.224Z,39.50
2018-06-13T09:54:24.485Z,40.52
2018-06-13T09:56:52.896Z,42.66
2018-06-13T09:59:21.225Z,39.69
2018-06-13T10:01:55.290Z,36.95
2018-06-13T10:04:23.596Z,42.33
2018-06-13T10:06:51.742Z,39.27
2018-06-13T10:09:19.816Z,37.65
2018-06-13T10:11:47.998Z,37.26
2018-06-13T10:14:16.024Z,34.15
2018-06-13T10:16:44.287Z,36.13
2018-06-13T10:19:12.387Z,34.51
2018-06-13T10:21:40.532Z,34.11
2018-06-13T10:24:08.686Z,36.05
2018-06-13T10:26:36.883Z,35.52
2018-06-13T10:29:05.017Z,39.30
2018-06-13T10:31:33.073Z,40.30
2018-06-13T10:34:01.220Z,34.27
2018-06-13T10:36:29.258Z,34.49
2018-06-13T10:38:57.332Z,39.66
2018-06-13T10:41:25.369Z,41.63
2018-06-13T10:43:53.596Z,40.36
2018-06-13T10:46:21.850Z,37.01
2018-06-13T10:48:49.976Z,40.85
2018-06-13T10:51:18.753Z,35.60
2018-06-13T10:53:46.956Z,40.70
2018-06-13T10:56:15.744Z,43.15
2018-06-13T10:58:44.016Z,43.51
2018-06-13T11:01:13.152Z,39.57
2018-06-13T11:03:41.412Z,42.19
2018-06-13T11:06:09.846Z,39.34
2018-06-13T11:08:38.139Z,41.03
2018-06-13T11:11:06.320Z,42.04
2018-06-13T11:13:34.581Z,41.58
2018-06-13T11:16:02.667Z,41.32
2018-06-13T11:18:30.904Z,44.00
2018-06-13T11:20:59.129Z,44.01
2018-06-13T11:23:27.339Z,44.93
2018-06-13T11:25:55.966Z,45.62
2018-06-13T11:28:24.517Z,44.69
2018-06-13T11:30:52.976Z,48.54
2018-06-13T11:33:21.307Z,46.50
2018-06-13T11:35:49.596Z,47.67
2018-06-13T11:38:18.337Z,49.13
2018-06-13T11:40:46.610Z,51.06
2018-06-13T11:43:15.008Z,52.66
2018-06-13T11:45:43.585Z,52.73
2018-06-13T11:48:12.259Z,49.72
2018-06-13T11:50:41.072Z,51.77
2018-06-13T11:53:09.624Z,50.42
2018-06-13T11:55:38.226Z,49.80
2018-06-13T11:58:06.938Z,44.28
2018-06-13T12:00:35.362Z,44.10
2018-06-13T12:03:03.895Z,43.75
2018-06-13T12:05:32.119Z,43.64
2018-06-13T12:08:00.357Z,42.72
2018-06-13T12:10:28.610Z,41.86
2018-06-13T12:12:56.871Z,43.47
2018-06-13T12:15:25.130Z,46.79
2018-06-13T12:17:53.381Z,44.56
2018-06-13T12:20:21.654Z,47.84
2018-06-13T12:22:50.125Z,46.51
2018-06-13T12:25:18.636Z,48.33
2018-06-13T12:27:47.055Z,48.55
2018-06-13T12:30:15.472Z,51.93
2018-06-13T12:32:43.743Z,53.56
2018-06-13T12:35:12.036Z,54.87
2018-06-13T12:37:40.720Z,54.19
2018-06-13T12:40:08.910Z,53.19
2018-06-13T12:42:37.235Z,52.21
2018-06-13T12:45:05.562Z,48.13
2018-06-13T12:47:33.962Z,51.29
2018-06-13T12:50:02.428Z,52.20
2018-06-13T12:52:30.885Z,48.15
2018-06-13T12:54:59.026Z,49.12
2018-06-13T12:57:27.318Z,48.33
2018-06-13T12:59:55.657Z,48.75
2018-06-13T13:02:23.829Z,49.87
2018-06-13T13:04:51.944Z,52.33
2018-06-13T13:07:20.436Z,50.85
2018-06-13T13:09:48.755Z,53.59
2018-06-13T13:12:16.954Z,51.41
2018-06-13T13:14:45.192Z,52.01
2018-06-13T13:17:13.389Z,52.80
2018-06-13T13:19:41.705Z,53.02
2018-06-13T13:22:10.010Z,54.05
2018-06-13T13:24:38.433Z,54.66
2018-06-13T13:27:06.693Z,55.18
2018-06-13T13:29:34.890Z,57.75
2018-06-13T13:32:03.130Z,59.17
2018-06-13T13:34:31.197Z,58.15
2018-06-13T13:36:59.299Z,57.12
2018-06-13T13:39:27.536Z,55.03
2018-06-13T13:41:55.674Z,54.88
2018-06-13T13:44:23.856Z,54.30
2018-06-13T13:46:52.111Z,53.28
2018-06-13T13:49:20.301Z,51.16
2018-06-13T13:51:48.827Z,50.23
2018-06-13T13:54:17.144Z,50.70
2018-06-13T13:56:45.371Z,52.92
2018-06-13T13:59:13.670Z,55.03
2018-06-13T14:01:42.229Z,57.72
2018-06-13T14:04:10.602Z,54.45
2018-06-13T14:06:39.473Z,56.96
2018-06-13T14:09:09.524Z,58.58
2018-06-13T14:11:37.794Z,61.21
2018-06-13T14:14:06.083Z,62.23
2018-06-13T14:16:34.500Z,63.46
2018-06-13T14:19:02.825Z,66.28
2018-06-13T14:21:31.253Z,67.11
2018-06-13T14:23:59.561Z,68.58
2018-06-13T14:26:27.700Z,69.42
2018-06-13T14:28:56.049Z,67.08
2018-06-13T14:31:25.271Z,67.27
2018-06-13T14:33:53.863Z,67.70
2018-06-13T14:36:22.164Z,68.40
2018-06-13T14:38:50.535Z,68.55
2018-06-13T14:41:18.792Z,66.17
2018-06-13T14:43:47.078Z,63.94
2018-06-13T14:46:15.683Z,67.78
2018-06-13T14:48:44.052Z,67.82
2018-06-13T14:51:12.546Z,67.42
2018-06-13T14:53:40.904Z,68.30
2018-06-13T14:56:14.944Z,69.51
2018-06-13T14:58:43.098Z,70.77
2018-06-13T15:01:11.249Z,69.08
2018-06-13T15:03:40.444Z,69.76
2018-06-13T15:06:09.192Z,69.86
2018-06-13T15:08:37.787Z,71.84
2018-06-13T15:11:06.422Z,71.72
2018-06-13T15:13:34.850Z,72.78
2018-06-13T15:16:03.168Z,73.40
2018-06-13T15:18:31.441Z,72.85
2018-06-13T15:20:59.763Z,72.16
2018-06-13T15:23:27.950Z,73.93
2018-06-13T15:25:56.195Z,74.24
2018-06-13T15:28:24.378Z,73.37
2018-06-13T15:30:52.554Z,72.30
2018-06-13T15:33:20.801Z,73.67
2018-06-13T15:35:48.998Z,75.48
2018-06-13T15:38:17.188Z,75.44
2018-06-13T15:40:45.534Z,75.41
2018-06-13T15:43:15.182Z,75.81
2018-06-13T15:45:43.393Z,76.49
2018-06-13T15:48:11.661Z,77.02
2018-06-13T15:50:39.885Z,76.93
2018-06-13T15:53:08.091Z,77.81
2018-06-13T15:55:36.308Z,77.54
2018-06-13T15:58:04.915Z,79.90
2018-06-13T16:00:32.983Z,79.56
2018-06-13T16:03:01.217Z,81.10
2018-06-13T16:05:29.392Z,82.78
2018-06-13T16:07:57.533Z,83.15
2018-06-13T16:10:25.847Z,81.41
2018-06-13T16:12:54.060Z,82.29
2018-06-13T16:15:22.202Z,84.06
2018-06-13T16:17:50.288Z,84.47
2018-06-13T16:20:18.385Z,83.46
2018-06-13T16:22:46.625Z,83.26
2018-06-13T16:25:14.854Z,82.36
2018-06-13T16:27:43.575Z,82.09
2018-06-13T16:30:13.078Z,82.53
2018-06-13T16:32:41.683Z,84.73
2018-06-13T16:35:11.213Z,85.88
2018-06-13T16:37:40.072Z,84.45
2018-06-13T16:40:08.567Z,85.51
2018-06-13T16:42:37.053Z,86.56
2018-06-13T16:45:05.797Z,88.99
2018-06-13T16:47:34.318Z,89.97
2018-06-13T16:50:12.914Z,91.77
2018-06-13T16:53:55.044Z,93.35
2018-06-13T16:56:24.336Z,92.54
2018-06-13T16:58:53.429Z,93.73
2018-06-13T17:01:22.522Z,95.42
2018-06-13T17:03:52.112Z,94.89
2018-06-13T17:06:20.530Z,95.94
2018-06-13T17:08:49.595Z,93.98
2018-06-13T17:11:19.624Z,95.68
2018-06-13T17:13:49.422Z,95.15
2018-06-13T17:16:19.098Z,95.06
2018-06-13T17:18:48.158Z,94.72
2018-06-13T17:21:16.945Z,94.81
2018-06-13T17:23:45.764Z,95.79
2018-06-13T17:26:14.536Z,95.75
2018-06-13T17:28:43.233Z,94.67
2018-06-13T17:31:11.965Z,94.46
2018-06-13T17:33:40.621Z,96.58
2018-06-13T17:36:09.417Z,96.03
2018-06-13T17:38:38.439Z,93.25
2018-06-13T17:41:07.596Z,93.41
2018-06-13T17:43:36.591Z,95.00
2018-06-13T17:46:05.326Z,96.02
2018-06-13T17:48:33.928Z,96.50
2018-06-13T17:51:02.489Z,95.55
2018-06-13T17:53:31.038Z,96.03
2018-06-13T17:55:59.757Z,96.05
2018-06-13T17:58:28.548Z,95.98
2018-06-13T18:00:57.269Z,96.54
2018-06-13T18:03:25.702Z,96.64
2018-06-13T18:05:54.566Z,97.96
2018-06-13T18:08:23.228Z,98.06
2018-06-13T18:10:52.077Z,95.29
2018-06-13T18:13:22.511Z,99.08
2018-06-13T18:15:51.419Z,94.69
2018-06-13T18:18:19.855Z,97.09
2018-06-13T18:20:48.834Z,96.92
2018-06-13T18:23:17.711Z,99.81
2018-06-13T18:25:46.521Z,100.00
2018-06-13T18:28:15.109Z,99.68
2018-06-13T18:30:43.862Z,98.88
2018-06-13T18:33:12.542Z,98.90
2018-06-13T18:35:41.107Z,100.00
2018-06-13T18:38:09.882Z,98.11
2018-06-13T18:40:38.555Z,98.02
2018-06-13T18:43:07.193Z,97.89
2018-06-13T18:45:35.652Z,96.78
2018-06-13T18:48:04.308Z,96.50
2018-06-13T18:50:32.846Z,96.63
2018-06-13T18:53:01.390Z,95.47
2018-06-13T18:55:29.876Z,97.46
2018-06-13T18:57:58.421Z,98.42
2018-06-13T19:00:27.310Z,98.64
2018-06-13T19:02:55.855Z,98.43
2018-06-13T19:05:24.540Z,97.89
2018-06-13T19:07:53.199Z,98.96
2018-06-13T19:10:21.882Z,99.24
2018-06-13T19:12:51.017Z,99.44
2018-06-13T19:15:20.156Z,100.00
2018-06-13T19:17:48.887Z,100.00
2018-06-13T19:20:17.505Z,100.00
2018-06-13T19:22:46.500Z,100.00
2018-06-13T19:25:15.696Z,100.00
2018-06-13T19:27:44.315Z,100.00
2018-06-13T19:30:12.527Z,100.00
2018-06-13T19:32:40.978Z,100.00
2018-06-13T19:35:09.164Z,99.84
2018-06-13T19:37:37.565Z,100.00
2018-06-13T19:40:06.135Z,100.00
2018-06-13T19:42:34.311Z,100.00
2018-06-13T19:45:02.501Z,100.00
2018-06-13T19:47:36.126Z,100.00
2018-06-13T19:50:04.549Z,100.00
2018-06-13T19:52:38.113Z,100.00
2018-06-13T19:55:11.937Z,100.00
2018-06-13T19:57:40.085Z,100.00
2018-06-13T20:00:08.141Z,100.00
2018-06-13T20:02:41.910Z,100.00
2018-06-13T20:05:15.445Z,100.00
2018-06-13T20:07:43.572Z,100.00
2018-06-13T20:10:11.836Z,100.00
2018-06-13T20:12:45.650Z,100.00
2018-06-13T20:15:19.303Z,100.00
2018-06-13T20:17:52.996Z,100.00
2018-06-13T20:20:21.258Z,100.00
2018-06-13T20:22:49.424Z,100.00
2018-06-13T20:25:23.410Z,100.00
2018-06-13T20:27:57.057Z,100.00
2018-06-13T20:30:30.980Z,100.00
2018-06-13T20:32:59.124Z,100.00
2018-06-13T20:35:27.268Z,100.00
2018-06-13T20:37:55.272Z,100.00
2018-06-13T20:40:23.330Z,100.00
2018-06-13T20:42:51.491Z,100.00
2018-06-13T20:45:19.588Z,100.00
2018-06-13T20:47:47.666Z,100.00
2018-06-13T20:50:15.761Z,100.00
2018-06-13T20:52:43.867Z,100.00
2018-06-13T20:55:11.933Z,100.00
2018-06-13T20:57:40.000Z,100.00
2018-06-13T21:00:08.030Z,100.00
2018-06-13T21:02:36.156Z,100.00
2018-06-13T21:05:04.306Z,100.00
2018-06-13T21:07:32.427Z,100.00
2018-06-13T21:10:00.574Z,100.00
2018-06-13T21:12:28.678Z,100.00
2018-06-13T21:14:56.745Z,100.00
2018-06-13T21:17:24.958Z,100.00
2018-06-13T21:19:52.953Z,100.00
2018-06-13T21:22:21.056Z,100.00
2018-06-13T21:24:49.132Z,100.00
2018-06-13T21:27:17.245Z,100.00
2018-06-13T21:29:45.518Z,100.00
2018-06-13T21:32:13.576Z,100.00
2018-06-13T21:34:41.635Z,100.00
2018-06-13T21:37:09.720Z,100.00
2018-06-13T21:39:37.738Z,100.00
2018-06-13T21:42:05.985Z,100.00
2018-06-13T21:44:34.084Z,100.00
2018-06-13T21:47:02.329Z,100.00
2018-06-13T21:49:30.382Z,100.00
2018-06-13T21:51:58.503Z,100.00
2018-06-13T21:54:26.548Z,100.00
2018-06-13T21:56:54.621Z,100.00
2018-06-13T21:59:22.667Z,100.00
2018-06-13T22:01:50.856Z,100.00
2018-06-13T22:04:18.842Z,100.00
2018-06-13T22:06:46.976Z,100.00
2018-06-13T22:09:14.996Z,100.00
2018-06-13T22:11:48.596Z,100.00
2018-06-13T22:14:16.649Z,100.00
2018-06-13T22:16:44.647Z,100.00
2018-06-13T22:19:12.696Z,100.00
2018-06-13T22:21:40.759Z,100.00
2018-06-13T22:24:08.779Z,100.00
2018-06-13T22:26:36.874Z,100.00
2018-06-13T22:29:04.966Z,100.00
2018-06-13T22:31:32.998Z,100.00
2018-06-13T22:34:01.028Z,100.00
2018-06-13T22:36:29.044Z,100.00
2018-06-13T22:38:57.060Z,100.00
2018-06-13T22:41:25.088Z,100.00
2018-06-13T22:43:53.278Z,100.00
2018-06-13T22:46:21.226Z,100.00
2018-06-13T22:48:49.344Z,100.00
2018-06-13T22:51:17.404Z,100.00
2018-06-13T22:53:45.461Z,100.00
2018-06-13T22:56:13.553Z,100.00
2018-06-13T22:58:41.551Z,100.00
2018-06-13T23:01:11.400Z,100.00
2018-06-13T23:03:39.628Z,100.00
2018-06-13T23:06:08.663Z,100.00
2018-06-13T23:08:37.515Z,100.00
2018-06-13T23:11:05.645Z,100.00
2018-06-13T23:13:33.607Z,100.00
2018-06-13T23:16:01.684Z,100.00
2018-06-13T23:18:30.328Z,100.00
2018-06-13T23:20:58.430Z,100.00
2018-06-13T23:23:26.555Z,100.00
2018-06-13T23:25:55.596Z,100.00
2018-06-13T23:28:23.669Z,100.00
2018-06-13T23:30:51.805Z,100.00
2018-06-13T23:33:19.870Z,100.00
2018-06-13T23:35:47.906Z,100.00
2018-06-13T23:38:16.348Z,100.00
2018-06-13T23:40:44.603Z,100.00
2018-06-13T23:43:12.652Z,100.00
2018-06-13T23:45:40.750Z,100.00
2018-06-13T23:48:08.775Z,100.00
2018-06-13T23:50:36.893Z,100.00
2018-06-13T23:53:05.230Z,100.00
2018-06-13T23:55:33.280Z,100.00
2018-06-13T23:58:01.283Z,100.00
